EDT,Max TemperatureF,Mean TemperatureF,Min TemperatureF,Max Dew PointF,MeanDew PointF,Min DewpointF,Max Humidity, Mean Humidity, Min Humidity, Max Sea Level PressureIn, Mean Sea Level PressureIn, Min Sea Level PressureIn, Max VisibilityMiles, Mean VisibilityMiles, Min VisibilityMiles, Max Wind SpeedMPH, Mean Wind SpeedMPH, Max Gust SpeedMPH,PrecipitationIn, CloudCover, Events, WindDirDegrees
2014-3-1,35,20,5,30,15,-4,93,69,38,30.44,30.32,30.13,10,10,9,18,5,23,0.00,3,,208
2014-3-2,39,36,32,31,27,23,93,77,56,30.12,30.02,29.95,10,9,5,13,7,,0.00,7,Snow,241
2014-3-3,32,22,12,28,8,-4,93,59,33,30.27,30.10,29.93,10,8,1,22,10,26,0.00,4,Rain-Snow,346
2014-3-4,30,19,8,17,6,-4,64,52,34,30.35,30.29,30.25,10,10,10,13,7,13,0.00,2,,276
2014-3-5,33,28,23,25,17,10,93,66,36,30.41,30.28,30.22,10,9,2,23,5,24,0.00,8,Rain-Snow,11
2014-3-6,27,20,10,18,12,7,92,67,39,30.59,30.53,30.42,10,9,2,22,10,24,0.00,5,Rain-Snow,16
2014-3-7,39,22,6,35,21,3,93,77,53,30.51,30.25,29.91,10,10,10,15,5,20,0.00,5,,40
2014-3-8,55,42,30,36,29,21,100,67,29,29.90,29.77,29.68,10,10,7,18,8,20,0.00,4,,10
2014-3-9,41,32,24,28,16,7,75,51,26,29.93,29.89,29.83,10,10,10,16,7,21,0.00,4,,338
2014-3-10,41,34,28,34,27,12,100,77,38,29.90,29.80,29.69,10,8,2,15,6,22,0.00,7,Snow,230
2014-3-11,57,45,33,37,33,28,93,71,36,29.73,29.60,29.53,10,9,2,13,7,17,0.00,3,,233
2014-3-12,55,44,33,54,41,28,100,82,62,29.72,29.44,28.95,10,7,0,29,8,38,0.31,6,Rain-Thunderstorm,170
2014-3-13,50,34,17,50,17,0,100,74,31,29.92,29.38,28.94,10,7,0,24,15,34,0.01,7,Rain-Snow-Hail,321
2014-3-14,38,26,14,30,12,-2,75,55,28,30.21,30.09,29.93,10,10,10,22,13,32,0.00,1,,249
2014-3-15,51,42,30,45,34,27,93,69,47,29.98,29.81,29.70,10,9,4,24,14,33,0.00,5,Rain,235
2014-3-16,37,32,28,28,9,0,81,37,19,30.17,30.06,29.89,10,10,10,22,12,30,0.00,2,,301
2014-3-17,29,22,12,17,11,1,93,59,31,30.16,30.10,30.03,10,10,8,20,11,28,0.00,5,Snow,25
2014-3-18,35,22,10,19,15,7,92,67,36,30.35,30.27,30.16,10,10,10,17,5,21,0.00,0,,42
2014-3-19,42,30,17,36,25,16,93,73,43,30.37,30.25,29.96,10,10,8,16,6,22,0.00,2,,98
2014-3-20,51,44,36,46,38,28,100,79,43,29.99,29.71,29.62,10,7,0,26,12,32,0.28,7,Fog-Rain,229
2014-3-21,46,39,30,28,22,18,75,52,34,30.04,29.87,29.77,10,10,10,24,12,30,0.00,1,,275
2014-3-22,57,40,23,41,28,18,86,65,40,30.07,29.90,29.68,10,10,7,34,10,46,0.00,1,,235
2014-3-23,44,36,28,28,19,3,81,51,18,30.01,29.95,29.87,10,10,10,18,7,24,0.00,4,,302
2014-3-24,32,24,15,10,1,-6,79,40,20,30.14,30.09,30.02,10,10,9,21,11,31,0.00,2,,330
2014-3-25,35,24,12,22,8,-2,86,50,22,30.16,30.08,29.86,10,10,10,17,4,28,0.00,2,,247
2014-3-26,33,28,24,28,16,0,94,61,23,29.96,29.63,29.33,10,6,0,51,22,54,0.00,6,Rain-Snow,346
2014-3-27,35,27,19,28,9,-2,75,45,25,30.34,30.25,29.97,10,10,10,23,16,33,0.00,2,,271
2014-3-28,57,46,35,46,40,28,100,78,59,30.29,30.13,30.01,10,9,2,37,17,50,0.02,6,Rain,218
2014-3-29,51,42,33,46,42,34,100,92,67,30.23,30.12,29.94,10,4,0,20,10,23,0.20,6,Fog-Rain,34
2014-3-30,55,46,37,55,46,36,100,99,90,29.92,29.64,29.52,10,3,0,25,14,38,0.16,8,Fog-Rain,77
2014-3-31,37,35,33,36,33,30,100,92,71,29.94,29.77,29.61,10,5,1,30,18,40,0.00,7,Rain-Snow,9